createdAt,value
2023-01-02T00:02:00.571Z,6.61
2023-01-02T00:04:45.890Z,7.54
2023-01-02T00:07:31.689Z,7.36
2023-01-02T00:10:17.260Z,7.82
2023-01-02T00:13:02.869Z,7.54
2023-01-02T00:15:48.850Z,6.43
2023-01-02T00:18:34.310Z,7.19
2023-01-02T00:21:19.689Z,5.89
2023-01-02T00:24:05.433Z,6.12
2023-01-02T00:26:50.616Z,7.26
2023-01-02T00:29:36.136Z,6.80
2023-01-02T00:32:21.691Z,7.34
2023-01-02T00:35:07.496Z,6.29
2023-01-02T00:37:53.649Z,6.71
2023-01-02T00:40:39.416Z,7.20
2023-01-02T00:43:25.212Z,7.10
2023-01-02T00:46:12.163Z,6.71
2023-01-02T00:48:58.010Z,6.03
2023-01-02T00:51:43.625Z,7.10
2023-01-02T00:54:29.005Z,6.66
2023-01-02T00:57:14.535Z,6.90
2023-01-02T01:00:00.129Z,6.09
2023-01-02T01:02:45.573Z,6.04
2023-01-02T01:05:31.401Z,5.23
2023-01-02T01:08:16.841Z,6.46
2023-01-02T01:11:11.022Z,5.48
2023-01-02T01:13:56.305Z,6.39
2023-01-02T01:16:42.481Z,6.11
2023-01-02T01:19:34.908Z,6.47
2023-01-02T01:22:20.393Z,6.50
2023-01-02T01:25:06.272Z,6.62
2023-01-02T01:27:54.901Z,5.79
2023-01-02T01:30:40.240Z,6.67
2023-01-02T01:33:25.654Z,5.29
2023-01-02T01:36:17.075Z,6.62
2023-01-02T01:39:02.739Z,6.01
2023-01-02T01:41:48.260Z,6.56
2023-01-02T01:44:44.148Z,6.41
2023-01-02T01:47:35.761Z,6.51
2023-01-02T01:50:35.587Z,6.06
2023-01-02T01:53:22.710Z,5.16
2023-01-02T01:56:10.726Z,5.22
2023-01-02T01:58:56.214Z,6.28
2023-01-02T02:01:43.832Z,6.15
2023-01-02T02:04:31.913Z,6.81
2023-01-02T02:07:17.514Z,6.85
2023-01-02T02:10:08.212Z,5.69
2023-01-02T02:12:53.831Z,6.10
2023-01-02T02:15:57.978Z,6.82
2023-01-02T02:19:02.118Z,6.74
2023-01-02T02:22:19.128Z,6.41
2023-01-02T02:25:26.104Z,6.62
2023-01-02T02:28:20.877Z,6.52
2023-01-02T02:31:06.333Z,6.44
2023-01-02T02:34:10.597Z,6.40
2023-01-02T02:37:14.914Z,5.08
2023-01-02T02:40:04.229Z,6.41
2023-01-02T02:42:59.012Z,6.47
2023-01-02T02:46:12.336Z,6.29
2023-01-02T02:49:10.853Z,5.75
2023-01-02T02:52:03.328Z,6.09
2023-01-02T02:55:01.236Z,5.86
2023-01-02T02:57:47.627Z,4.67
2023-01-02T03:00:33.035Z,5.82
2023-01-02T03:03:21.059Z,5.53
2023-01-02T03:06:19.981Z,5.48
2023-01-02T03:09:24.049Z,5.82
2023-01-02T03:12:26.629Z,5.65
2023-01-02T03:15:40.107Z,5.84
2023-01-02T03:18:32.113Z,4.64
2023-01-02T03:21:31.035Z,5.67
2023-01-02T03:24:20.091Z,4.68
2023-01-02T03:27:12.778Z,5.82
2023-01-02T03:30:21.300Z,5.81
2023-01-02T03:33:12.804Z,5.80
2023-01-02T03:36:08.645Z,5.52
2023-01-02T03:39:07.044Z,5.64
2023-01-02T03:42:07.904Z,5.80
2023-01-02T03:45:03.953Z,4.63
2023-01-02T03:48:08.713Z,5.65
2023-01-02T03:50:57.907Z,5.42
2023-01-02T03:53:44.059Z,5.16
2023-01-02T03:56:46.619Z,4.44
2023-01-02T03:59:55.322Z,5.11
2023-01-02T04:03:07.656Z,5.13
2023-01-02T04:06:09.459Z,5.21
2023-01-02T04:09:16.774Z,5.23
2023-01-02T04:12:07.616Z,5.23
2023-01-02T04:14:59.751Z,4.74
2023-01-02T04:17:49.711Z,4.22
2023-01-02T04:20:40.780Z,5.32
2023-01-02T04:23:35.478Z,5.44
2023-01-02T04:26:26.776Z,5.46
2023-01-02T04:29:12.105Z,5.27
2023-01-02T04:32:23.004Z,5.45
2023-01-02T04:35:13.823Z,4.21
2023-01-02T04:38:07.880Z,4.38
2023-01-02T04:40:53.449Z,3.85
2023-01-02T04:43:38.873Z,4.81
2023-01-02T04:46:25.793Z,4.63
2023-01-02T04:49:11.230Z,4.65
2023-01-02T04:51:56.451Z,3.80
2023-01-02T04:54:41.888Z,4.78
2023-01-02T04:57:27.317Z,4.85
2023-01-02T05:00:12.980Z,4.36
2023-01-02T05:02:58.700Z,3.95
2023-01-02T05:05:43.939Z,3.88
2023-01-02T05:08:29.839Z,4.61
2023-01-02T05:11:19.636Z,5.05
2023-01-02T05:14:07.551Z,5.00
2023-01-02T05:16:53.233Z,4.59
2023-01-02T05:19:39.157Z,5.09
2023-01-02T05:22:45.706Z,5.03
2023-01-02T05:25:33.586Z,4.44
2023-01-02T05:28:19.137Z,5.00
2023-01-02T05:31:04.855Z,3.70
2023-01-02T05:33:55.144Z,4.86
2023-01-02T05:36:40.888Z,4.80
2023-01-02T05:39:26.836Z,4.76
2023-01-02T05:42:12.444Z,4.77
2023-01-02T05:44:57.971Z,3.64
2023-01-02T05:47:43.209Z,4.01
2023-01-02T05:50:28.543Z,4.68
2023-01-02T05:53:14.083Z,4.71
2023-01-02T05:56:08.358Z,4.49
2023-01-02T05:58:54.099Z,4.34
2023-01-02T06:01:39.863Z,4.47
2023-01-02T06:04:25.686Z,4.58
2023-01-02T06:07:11.063Z,3.57
2023-01-02T06:09:56.493Z,4.58
2023-01-02T06:12:41.777Z,3.94
2023-01-02T06:15:27.322Z,3.51
2023-01-02T06:18:12.920Z,4.78
2023-01-02T06:20:59.777Z,4.66
2023-01-02T06:23:45.699Z,4.91
2023-01-02T06:26:35.195Z,4.25
2023-01-02T06:29:21.055Z,3.43
2023-01-02T06:32:06.501Z,4.71
2023-01-02T06:34:51.890Z,4.73
2023-01-02T06:37:43.278Z,4.75
2023-01-02T06:40:28.949Z,3.67
2023-01-02T06:43:14.379Z,4.75
2023-01-02T06:46:01.673Z,3.81
2023-01-02T06:48:47.813Z,3.40
2023-01-02T06:51:33.314Z,4.77
2023-01-02T06:54:18.735Z,4.53
2023-01-02T06:57:04.358Z,4.55
2023-01-02T06:59:50.137Z,4.85
2023-01-02T07:02:36.790Z,4.90
2023-01-02T07:05:24.890Z,4.78
2023-01-02T07:08:12.147Z,5.03
2023-01-02T07:11:08.407Z,4.75
2023-01-02T07:13:54.973Z,3.59
2023-01-02T07:16:40.511Z,4.15
2023-01-02T07:19:26.000Z,4.06
2023-01-02T07:22:11.274Z,5.62
2023-01-02T07:24:56.761Z,5.51
2023-01-02T07:27:42.174Z,5.72
2023-01-02T07:30:27.617Z,5.32
2023-01-02T07:33:13.087Z,4.51
2023-01-02T07:36:11.158Z,5.16
2023-01-02T07:38:57.564Z,5.27
2023-01-02T07:41:43.771Z,5.47
2023-01-02T07:44:33.912Z,4.99
2023-01-02T07:47:19.617Z,5.36
2023-01-02T07:50:05.639Z,5.69
2023-01-02T07:52:51.276Z,4.84
2023-01-02T07:55:36.764Z,5.82
2023-01-02T07:58:22.478Z,6.04
2023-01-02T08:01:10.933Z,5.21
2023-01-02T08:03:56.670Z,6.50
2023-01-02T08:06:42.389Z,6.58
2023-01-02T08:09:27.800Z,6.74
2023-01-02T08:12:13.223Z,7.00
2023-01-02T08:14:58.639Z,5.90
2023-01-02T08:17:44.174Z,7.10
2023-01-02T08:20:29.532Z,6.48
2023-01-02T08:23:14.825Z,7.56
2023-01-02T08:26:02.369Z,7.42
2023-01-02T08:28:47.679Z,7.53
2023-01-02T08:31:33.131Z,7.72
2023-01-02T08:34:18.610Z,7.53
2023-01-02T08:37:04.300Z,6.87
2023-01-02T08:39:49.649Z,7.63
2023-01-02T08:42:34.899Z,7.75
2023-01-02T08:45:20.156Z,7.83
2023-01-02T08:48:20.294Z,8.22
2023-01-02T08:51:13.023Z,8.25
2023-01-02T08:53:59.150Z,7.71
2023-01-02T08:56:44.423Z,7.34
2023-01-02T08:59:29.877Z,8.28
2023-01-02T09:02:16.085Z,8.41
2023-01-02T09:05:02.151Z,7.80
2023-01-02T09:07:47.594Z,7.72
2023-01-02T09:10:33.170Z,7.96
2023-01-02T09:13:18.496Z,9.04
2023-01-02T09:16:04.172Z,8.72
2023-01-02T09:18:50.932Z,8.24
2023-01-02T09:21:36.511Z,9.34
2023-01-02T09:24:22.403Z,9.12
2023-01-02T09:27:08.395Z,9.39
2023-01-02T09:29:53.948Z,8.26
2023-01-02T09:32:39.385Z,9.26
2023-01-02T09:35:25.653Z,9.54
2023-01-02T09:38:11.066Z,9.22
2023-01-02T09:40:59.091Z,9.50
2023-01-02T09:43:49.724Z,9.49
2023-01-02T09:47:00.359Z,9.67
2023-01-02T09:49:52.960Z,9.68
2023-01-02T09:52:51.520Z,9.77
2023-01-02T09:55:50.067Z,9.49
2023-01-02T09:59:17.537Z,9.84
2023-01-02T10:02:06.261Z,9.90
2023-01-02T10:05:24.199Z,9.63
2023-01-02T10:08:36.400Z,10.01
2023-01-02T10:11:24.854Z,10.06
2023-01-02T10:14:38.697Z,8.34
2023-01-02T10:17:28.437Z,8.99
2023-01-02T10:20:15.686Z,10.23
2023-01-02T10:23:14.842Z,10.10
2023-01-02T10:26:13.905Z,10.40
2023-01-02T10:29:16.301Z,10.00
2023-01-02T10:32:07.715Z,10.25
2023-01-02T10:35:00.060Z,10.59
2023-01-02T10:37:45.525Z,10.29
2023-01-02T10:40:33.325Z,9.53
2023-01-02T10:43:19.705Z,10.54
2023-01-02T10:46:05.418Z,10.50
2023-01-02T10:48:52.461Z,10.63
2023-01-02T10:51:48.254Z,10.56
2023-01-02T10:55:00.030Z,10.17
2023-01-02T10:57:51.523Z,11.22
2023-01-02T11:00:37.313Z,11.12
2023-01-02T11:03:25.657Z,11.40
2023-01-02T11:06:35.134Z,11.50
2023-01-02T11:09:26.565Z,11.57
2023-01-02T11:12:14.486Z,11.70
2023-01-02T11:15:13.858Z,11.83
2023-01-02T11:18:02.869Z,11.50
2023-01-02T11:20:54.224Z,11.78
2023-01-02T11:23:43.644Z,11.54
2023-01-02T11:26:30.711Z,11.08
2023-01-02T11:29:26.340Z,12.28
2023-01-02T11:32:23.085Z,11.76
2023-01-02T11:35:32.234Z,12.44
2023-01-02T11:38:30.054Z,11.35
2023-01-02T11:41:54.963Z,12.31
2023-01-02T11:45:08.445Z,11.97
2023-01-02T11:48:00.524Z,12.35
2023-01-02T11:50:45.951Z,12.16
2023-01-02T11:53:40.644Z,12.60
2023-01-02T11:56:36.421Z,12.82
2023-01-02T11:59:31.226Z,12.75
2023-01-02T12:02:26.956Z,12.90
2023-01-02T12:05:22.646Z,12.95
2023-01-02T12:08:42.120Z,12.98
2023-01-02T12:11:37.977Z,12.99
2023-01-02T12:14:35.414Z,12.63
2023-01-02T12:17:33.289Z,12.75
2023-01-02T12:20:25.164Z,13.04
2023-01-02T12:23:13.540Z,13.05
2023-01-02T12:26:11.912Z,13.01
2023-01-02T12:29:06.209Z,13.05
2023-01-02T12:32:08.186Z,12.88
2023-01-02T12:35:18.687Z,13.08
2023-01-02T12:38:08.251Z,13.01
2023-01-02T12:42:01.398Z,13.10
2023-01-02T12:44:58.542Z,12.84
2023-01-02T12:47:56.211Z,13.13
2023-01-02T12:51:08.248Z,13.12
2023-01-02T12:54:18.759Z,12.96
2023-01-02T12:57:06.263Z,13.17
2023-01-02T13:00:28.336Z,13.19
2023-01-02T13:03:35.905Z,13.20
2023-01-02T13:06:43.515Z,12.94
2023-01-02T13:09:43.575Z,13.18
2023-01-02T13:12:32.259Z,12.98
2023-01-02T13:15:36.241Z,13.21
2023-01-02T13:18:27.648Z,13.17
2023-01-02T13:22:04.186Z,13.19
2023-01-02T13:24:51.853Z,13.18
2023-01-02T13:27:37.547Z,12.87
2023-01-02T13:30:32.049Z,13.13
2023-01-02T13:33:24.041Z,13.07
2023-01-02T13:36:36.090Z,13.12
2023-01-02T13:39:37.936Z,12.95
2023-01-02T13:42:52.948Z,12.18
2023-01-02T13:45:50.753Z,11.99
2023-01-02T13:49:01.744Z,13.07
2023-01-02T13:51:47.732Z,13.03
2023-01-02T13:54:37.530Z,12.29
2023-01-02T13:57:29.117Z,12.94
2023-01-02T14:00:14.781Z,12.90
2023-01-02T14:03:23.198Z,12.86
2023-01-02T14:06:27.987Z,12.79
2023-01-02T14:09:15.254Z,12.20
2023-01-02T14:12:03.724Z,12.43
2023-01-02T14:14:52.738Z,12.45
2023-01-02T14:17:47.505Z,11.53
2023-01-02T14:20:36.979Z,11.93
2023-01-02T14:23:29.743Z,11.85
2023-01-02T14:26:29.200Z,10.95
2023-01-02T14:29:19.424Z,11.70
2023-01-02T14:32:39.208Z,11.97
2023-01-02T14:35:37.806Z,10.83
2023-01-02T14:38:26.446Z,11.62
2023-01-02T14:42:08.806Z,11.79
2023-01-02T14:45:03.017Z,11.78
2023-01-02T14:47:59.625Z,11.79
2023-01-02T14:50:48.831Z,11.80
2023-01-02T14:53:49.439Z,11.79
2023-01-02T14:56:38.469Z,11.57
2023-01-02T14:59:26.247Z,10.57
2023-01-02T15:02:19.398Z,11.34
2023-01-02T15:05:11.792Z,11.42
2023-01-02T15:07:59.013Z,11.54
2023-01-02T15:11:32.944Z,11.49
2023-01-02T15:14:23.851Z,11.47
2023-01-02T15:17:22.042Z,10.27
2023-01-02T15:20:09.431Z,11.30
2023-01-02T15:22:56.126Z,11.34
2023-01-02T15:25:42.760Z,11.29
2023-01-02T15:28:33.096Z,10.62
2023-01-02T15:31:18.687Z,10.73
2023-01-02T15:34:03.975Z,10.84
2023-01-02T15:36:49.595Z,10.83
2023-01-02T15:39:40.132Z,10.97
2023-01-02T15:42:46.321Z,10.86
2023-01-02T15:45:33.181Z,9.99
2023-01-02T15:48:22.065Z,10.62
2023-01-02T15:51:16.232Z,10.60
2023-01-02T15:54:03.528Z,10.51
2023-01-02T15:56:49.487Z,10.04
2023-01-02T15:59:38.963Z,10.45
2023-01-02T16:02:42.925Z,10.39
2023-01-02T16:05:29.458Z,9.86
2023-01-02T16:08:21.475Z,10.16
2023-01-02T16:11:12.961Z,10.34
2023-01-02T16:14:19.529Z,10.31
2023-01-02T16:17:14.449Z,9.79
2023-01-02T16:20:12.169Z,10.18
2023-01-02T16:23:05.832Z,9.75
2023-01-02T16:25:53.750Z,9.82
2023-01-02T16:28:43.837Z,8.91
2023-01-02T16:31:29.753Z,9.99
2023-01-02T16:34:27.233Z,10.05
2023-01-02T16:37:15.573Z,10.12
2023-01-02T16:40:58.949Z,10.17
2023-01-02T16:43:46.132Z,9.98
2023-01-02T16:46:32.183Z,10.18
2023-01-02T16:49:22.891Z,9.95
2023-01-02T16:52:09.953Z,9.96
2023-01-02T16:54:55.460Z,9.91
2023-01-02T16:57:41.015Z,10.25
2023-01-02T17:00:26.573Z,10.03
2023-01-02T17:03:25.242Z,9.88
2023-01-02T17:06:14.754Z,9.17
2023-01-02T17:09:00.545Z,8.72
2023-01-02T17:12:00.438Z,9.59
2023-01-02T17:14:46.321Z,9.65
2023-01-02T17:17:31.839Z,9.25
2023-01-02T17:20:17.333Z,9.31
2023-01-02T17:23:05.620Z,9.21
2023-01-02T17:25:51.431Z,8.11
2023-01-02T17:28:37.501Z,8.70
2023-01-02T17:31:26.067Z,8.25
2023-01-02T17:34:11.774Z,8.02
2023-01-02T17:36:58.138Z,7.99
2023-01-02T17:39:46.686Z,8.89
2023-01-02T17:42:32.743Z,8.91
2023-01-02T17:45:18.303Z,8.88
2023-01-02T17:48:10.975Z,9.09
2023-01-02T17:50:59.665Z,8.78
2023-01-02T17:53:48.801Z,9.11
2023-01-02T17:56:36.307Z,9.03
2023-01-02T17:59:24.588Z,8.91
2023-01-02T18:02:18.471Z,8.48
2023-01-02T18:05:06.394Z,9.00
2023-01-02T18:07:53.367Z,8.85
2023-01-02T18:10:40.652Z,9.15
2023-01-02T18:13:29.262Z,8.48
2023-01-02T18:16:21.610Z,8.19
2023-01-02T18:19:13.765Z,8.92
2023-01-02T18:21:59.251Z,9.06
2023-01-02T18:24:47.575Z,8.77
2023-01-02T18:27:34.887Z,8.72
2023-01-02T18:30:23.462Z,7.80
2023-01-02T18:33:17.869Z,8.12
2023-01-02T18:36:18.705Z,7.80
2023-01-02T18:39:16.613Z,8.96
2023-01-02T18:42:14.592Z,8.55
2023-01-02T18:45:01.042Z,8.54
2023-01-02T18:47:56.397Z,7.93
2023-01-02T18:50:44.661Z,8.64
2023-01-02T18:53:35.885Z,8.58
2023-01-02T18:56:31.219Z,8.84
2023-01-02T18:59:29.097Z,7.57
2023-01-02T19:02:57.934Z,8.49
2023-01-02T19:05:45.654Z,8.69
2023-01-02T19:08:37.267Z,8.67
2023-01-02T19:11:51.498Z,7.56
2023-01-02T19:14:40.468Z,8.28
2023-01-02T19:17:33.234Z,8.34
2023-01-02T19:20:26.579Z,8.10
2023-01-02T19:23:26.828Z,6.64
2023-01-02T19:26:38.427Z,7.66
2023-01-02T19:29:32.842Z,6.53
2023-01-02T19:32:26.912Z,7.61
2023-01-02T19:35:25.343Z,6.86
2023-01-02T19:38:26.830Z,7.64
2023-01-02T19:41:16.652Z,7.72
2023-01-02T19:44:02.746Z,6.83
2023-01-02T19:46:48.419Z,7.47
2023-01-02T19:49:34.599Z,7.55
2023-01-02T19:52:22.139Z,6.30
2023-01-02T19:55:09.552Z,7.22
2023-01-02T19:57:55.316Z,6.87
2023-01-02T20:00:40.703Z,5.89
2023-01-02T20:03:26.440Z,7.09
2023-01-02T20:06:12.461Z,7.18
2023-01-02T20:08:58.732Z,7.02
2023-01-02T20:12:07.831Z,6.89
2023-01-02T20:14:53.750Z,7.35
2023-01-02T20:17:39.700Z,7.11
2023-01-02T20:20:26.530Z,7.37
2023-01-02T20:23:12.271Z,7.32
2023-01-02T20:25:59.117Z,7.15
2023-01-02T20:28:46.815Z,6.56
2023-01-02T20:31:32.413Z,6.74
2023-01-02T20:34:18.771Z,5.99
2023-01-02T20:37:05.758Z,6.28
2023-01-02T20:39:52.541Z,5.43
2023-01-02T20:42:38.195Z,5.24
2023-01-02T20:45:24.067Z,5.64
2023-01-02T20:48:12.236Z,6.02
2023-01-02T20:50:59.234Z,6.44
2023-01-02T20:53:47.768Z,6.65
2023-01-02T20:56:34.710Z,6.61
2023-01-02T20:59:21.777Z,5.97
2023-01-02T21:02:07.744Z,6.48
2023-01-02T21:04:55.469Z,6.30
2023-01-02T21:07:40.719Z,5.77
2023-01-02T21:10:27.344Z,5.82
2023-01-02T21:13:16.776Z,5.48
2023-01-02T21:16:03.342Z,5.98
2023-01-02T21:18:51.220Z,5.83
2023-01-02T21:21:37.365Z,4.78
2023-01-02T21:24:22.684Z,5.44
2023-01-02T21:27:12.994Z,6.02
2023-01-02T21:29:59.686Z,5.95
2023-01-02T21:32:47.894Z,5.84
2023-01-02T21:35:34.641Z,5.46
2023-01-02T21:38:22.100Z,5.73
2023-01-02T21:41:26.972Z,5.65
2023-01-02T21:44:12.467Z,4.70
2023-01-02T21:46:58.192Z,5.80
2023-01-02T21:49:44.499Z,5.73
2023-01-02T21:52:30.176Z,5.52
2023-01-02T21:55:17.558Z,5.82
2023-01-02T21:58:18.670Z,5.31
2023-01-02T22:01:05.781Z,5.82
2023-01-02T22:03:51.066Z,5.46
2023-01-02T22:06:38.766Z,5.84
2023-01-02T22:09:31.310Z,5.72
2023-01-02T22:12:17.818Z,5.72
2023-01-02T22:15:09.169Z,5.42
2023-01-02T22:17:54.819Z,4.13
2023-01-02T22:20:40.433Z,5.15
2023-01-02T22:23:25.924Z,5.40
2023-01-02T22:26:11.299Z,4.11
2023-01-02T22:28:57.581Z,5.51
2023-01-02T22:31:43.468Z,5.28
2023-01-02T22:34:33.278Z,5.42
2023-01-02T22:37:22.721Z,5.25
2023-01-02T22:40:10.087Z,5.45
2023-01-02T22:43:00.964Z,3.91
2023-01-02T22:45:52.677Z,5.18
2023-01-02T22:48:40.220Z,4.88
2023-01-02T22:51:57.677Z,4.99
2023-01-02T22:54:31.985Z,4.17
2023-01-02T22:57:18.237Z,4.67
2023-01-02T23:00:04.139Z,5.21
2023-01-02T23:02:50.571Z,5.14
2023-01-02T23:05:35.856Z,5.15
2023-01-02T23:08:21.451Z,5.12
2023-01-02T23:11:09.853Z,4.98
2023-01-02T23:13:56.904Z,5.03
2023-01-02T23:17:01.631Z,3.90
2023-01-02T23:19:47.470Z,4.55
2023-01-02T23:22:32.860Z,5.14
2023-01-02T23:25:18.558Z,4.91
2023-01-02T23:28:04.149Z,4.18
2023-01-02T23:30:49.491Z,5.14
2023-01-02T23:33:34.973Z,4.62
2023-01-02T23:36:20.165Z,4.81
2023-01-02T23:39:07.762Z,5.02
2023-01-02T23:41:54.526Z,5.05
2023-01-02T23:44:41.043Z,4.99
2023-01-02T23:47:27.733Z,4.85
2023-01-02T23:50:13.233Z,4.89
2023-01-02T23:52:58.754Z,3.87
2023-01-02T23:55:44.388Z,5.12
2023-01-02T23:58:29.944Z,4.88
